createdAt,value
2023-03-02T00:00:16.381Z,5.80
2023-03-02T00:03:03.422Z,5.90
2023-03-02T00:05:49.080Z,5.80
2023-03-02T00:08:36.508Z,5.80
2023-03-02T00:11:22.329Z,5.70
2023-03-02T00:14:08.242Z,5.90
2023-03-02T00:16:53.841Z,6.00
2023-03-02T00:19:40.085Z,6.10
2023-03-02T00:22:25.747Z,6.30
2023-03-02T00:25:11.882Z,6.20
2023-03-02T00:27:58.243Z,5.80
2023-03-02T00:30:44.605Z,4.60
2023-03-02T00:33:30.786Z,5.70
2023-03-02T00:36:17.961Z,6.00
2023-03-02T00:39:04.733Z,6.10
2023-03-02T00:41:50.353Z,6.00
2023-03-02T00:44:36.265Z,6.00
2023-03-02T00:47:22.243Z,5.80
2023-03-02T00:50:10.148Z,5.70
2023-03-02T00:52:56.265Z,5.70
2023-03-02T00:55:42.115Z,5.80
2023-03-02T00:58:28.160Z,5.80
2023-03-02T01:01:15.920Z,6.00
2023-03-02T01:04:06.573Z,6.00
2023-03-02T01:06:52.383Z,6.10
2023-03-02T01:09:39.815Z,6.20
2023-03-02T01:12:26.228Z,6.10
2023-03-02T01:15:12.825Z,6.00
2023-03-02T01:17:59.338Z,6.20
2023-03-02T01:20:45.264Z,6.00
2023-03-02T01:23:30.861Z,6.10
2023-03-02T01:26:16.798Z,6.10
2023-03-02T01:29:02.424Z,5.80
2023-03-02T01:31:48.734Z,5.90
2023-03-02T01:34:34.771Z,6.00
2023-03-02T01:37:23.332Z,6.10
2023-03-02T01:40:11.088Z,6.00
2023-03-02T01:42:57.874Z,6.10
2023-03-02T01:45:45.890Z,6.00
2023-03-02T01:48:38.436Z,6.00
2023-03-02T01:51:25.685Z,6.10
2023-03-02T01:54:17.391Z,6.20
2023-03-02T01:57:04.232Z,6.10
2023-03-02T01:59:52.541Z,6.00
2023-03-02T02:02:42.026Z,6.10
2023-03-02T02:05:28.232Z,6.30
2023-03-02T02:08:14.949Z,6.30
2023-03-02T02:11:00.784Z,6.30
2023-03-02T02:13:47.160Z,6.10
2023-03-02T02:16:34.164Z,6.00
2023-03-02T02:19:29.205Z,5.90
2023-03-02T02:22:17.640Z,6.00
2023-03-02T02:25:06.161Z,5.10
2023-03-02T02:27:52.074Z,5.60
2023-03-02T02:30:39.408Z,5.90
2023-03-02T02:33:26.089Z,5.90
2023-03-02T02:36:23.664Z,5.80
2023-03-02T02:39:15.453Z,5.90
2023-03-02T02:42:03.725Z,6.10
2023-03-02T02:44:49.989Z,6.10
2023-03-02T02:47:36.075Z,5.90
2023-03-02T02:50:27.020Z,6.00
2023-03-02T02:53:16.079Z,6.00
2023-03-02T02:56:03.225Z,5.90
2023-03-02T02:58:52.047Z,5.70
2023-03-02T03:01:38.032Z,5.90
2023-03-02T03:04:28.835Z,5.80
2023-03-02T03:07:20.310Z,4.70
2023-03-02T03:10:25.419Z,5.80
2023-03-02T03:13:11.677Z,5.90
2023-03-02T03:15:57.804Z,5.70
2023-03-02T03:18:45.443Z,6.00
2023-03-02T03:21:31.376Z,5.90
2023-03-02T03:24:17.700Z,6.00
2023-03-02T03:27:05.703Z,6.20
2023-03-02T03:29:54.485Z,6.30
2023-03-02T03:32:43.093Z,6.40
2023-03-02T03:35:29.267Z,6.20
2023-03-02T03:38:16.891Z,6.30
2023-03-02T03:41:05.293Z,6.20
2023-03-02T03:43:51.141Z,6.20
2023-03-02T03:46:37.294Z,6.20
2023-03-02T03:49:23.582Z,6.30
2023-03-02T03:52:09.273Z,6.30
2023-03-02T03:54:55.554Z,6.40
2023-03-02T03:57:41.051Z,6.30
2023-03-02T04:00:26.948Z,6.10
2023-03-02T04:03:18.722Z,6.00
2023-03-02T04:06:04.551Z,6.10
2023-03-02T04:08:50.714Z,6.20
2023-03-02T04:11:37.523Z,6.20
2023-03-02T04:14:24.209Z,6.20
2023-03-02T04:17:10.334Z,6.20
2023-03-02T04:20:00.586Z,6.10
2023-03-02T04:22:49.082Z,6.20
2023-03-02T04:25:35.026Z,7.50
2023-03-02T04:28:32.051Z,6.10
2023-03-02T04:31:18.048Z,6.20
2023-03-02T04:34:06.478Z,6.10
2023-03-02T04:36:54.036Z,6.10
2023-03-02T04:39:39.789Z,6.10
2023-03-02T04:42:25.267Z,6.20
2023-03-02T04:45:11.683Z,6.20
2023-03-02T04:47:57.094Z,6.30
2023-03-02T04:50:42.617Z,6.30
2023-03-02T04:53:28.433Z,6.30
2023-03-02T04:56:14.956Z,6.50
2023-03-02T04:59:00.808Z,6.30
2023-03-02T05:01:46.784Z,6.30
2023-03-02T05:04:32.964Z,6.30
2023-03-02T05:07:18.914Z,6.40
2023-03-02T05:10:05.939Z,6.50
2023-03-02T05:13:17.628Z,6.50
2023-03-02T05:16:03.547Z,6.50
2023-03-02T05:18:48.868Z,6.40
2023-03-02T05:21:34.415Z,6.50
2023-03-02T05:24:20.011Z,6.60
2023-03-02T05:27:05.506Z,6.50
2023-03-02T05:29:50.718Z,6.50
2023-03-02T05:32:36.477Z,6.70
2023-03-02T05:35:22.777Z,6.70
2023-03-02T05:38:07.965Z,7.00
2023-03-02T05:40:54.279Z,6.70
2023-03-02T05:43:39.883Z,6.70
2023-03-02T05:46:25.280Z,6.70
2023-03-02T05:49:10.998Z,6.70
2023-03-02T05:51:56.496Z,6.70
2023-03-02T05:54:41.571Z,6.70
2023-03-02T06:01:16.836Z,6.80
2023-03-02T06:04:02.769Z,6.80
2023-03-02T06:06:48.821Z,6.90
2023-03-02T06:09:34.423Z,6.90
2023-03-02T06:12:20.216Z,6.90
2023-03-02T06:15:06.721Z,7.00
2023-03-02T06:17:52.806Z,7.10
2023-03-02T06:20:38.629Z,7.10
2023-03-02T06:23:24.498Z,7.10
2023-03-02T06:26:10.988Z,7.10
2023-03-02T06:28:56.754Z,7.10
2023-03-02T06:31:42.362Z,7.00
2023-03-02T06:34:29.411Z,7.00
2023-03-02T06:37:14.837Z,7.10
2023-03-02T06:40:00.632Z,7.20
2023-03-02T06:42:46.340Z,7.30
2023-03-02T06:45:34.026Z,7.40
2023-03-02T06:48:19.504Z,7.30
2023-03-02T06:51:06.882Z,7.40
2023-03-02T06:53:52.498Z,7.50
2023-03-02T06:56:40.744Z,7.30
2023-03-02T06:59:26.323Z,7.20
2023-03-02T07:02:13.268Z,7.20
2023-03-02T07:04:59.493Z,7.30
2023-03-02T07:07:45.361Z,7.50
2023-03-02T07:10:30.892Z,7.50
2023-03-02T07:13:17.008Z,7.50
2023-03-02T07:16:07.237Z,7.60
2023-03-02T07:18:53.062Z,7.80
2023-03-02T07:21:38.362Z,8.10
2023-03-02T07:24:24.348Z,8.10
2023-03-02T07:27:10.735Z,8.30
2023-03-02T07:29:56.777Z,8.40
2023-03-02T07:32:42.604Z,7.60
2023-03-02T07:35:28.759Z,8.40
2023-03-02T07:38:14.566Z,8.50
2023-03-02T07:41:00.551Z,8.70
2023-03-02T07:43:46.133Z,8.90
2023-03-02T07:46:31.545Z,8.90
2023-03-02T07:49:17.676Z,9.00
2023-03-02T07:52:03.893Z,9.10
2023-03-02T07:54:49.769Z,9.10
2023-03-02T07:57:35.679Z,9.20
2023-03-02T08:00:22.100Z,9.30
2023-03-02T08:03:07.844Z,9.30
2023-03-02T08:05:53.706Z,8.80
2023-03-02T08:08:40.267Z,9.40
2023-03-02T08:11:26.258Z,9.30
2023-03-02T08:14:11.864Z,9.30
2023-03-02T08:16:58.838Z,9.20
2023-03-02T08:19:44.952Z,9.40
2023-03-02T08:22:31.264Z,9.60
2023-03-02T08:25:17.226Z,9.50
2023-03-02T08:28:04.254Z,9.40
2023-03-02T08:30:57.706Z,9.40
2023-03-02T08:33:43.600Z,9.20
2023-03-02T08:36:29.532Z,8.90
2023-03-02T08:39:15.867Z,9.10
2023-03-02T08:42:01.715Z,9.60
2023-03-02T08:44:47.428Z,9.50
2023-03-02T08:47:33.318Z,9.40
2023-03-02T08:50:19.947Z,9.30
2023-03-02T08:53:05.981Z,9.40
2023-03-02T08:55:51.411Z,9.30
2023-03-02T08:58:37.281Z,9.10
2023-03-02T09:01:34.437Z,9.10
2023-03-02T09:04:20.779Z,9.10
2023-03-02T09:07:06.380Z,9.30
2023-03-02T09:09:52.620Z,9.60
2023-03-02T09:12:38.922Z,9.60
2023-03-02T09:15:24.807Z,9.90
2023-03-02T09:18:10.488Z,10.20
2023-03-02T09:20:59.106Z,10.20
2023-03-02T09:23:44.619Z,10.00
2023-03-02T09:26:30.463Z,10.00
2023-03-02T09:29:17.489Z,9.90
2023-03-02T09:32:03.417Z,10.10
2023-03-02T09:34:50.392Z,10.10
2023-03-02T09:37:39.033Z,10.10
2023-03-02T09:40:27.039Z,10.20
2023-03-02T09:43:18.568Z,10.30
2023-03-02T09:46:04.746Z,10.20
2023-03-02T09:49:02.106Z,10.20
2023-03-02T09:52:08.982Z,10.30
2023-03-02T09:54:55.204Z,10.50
2023-03-02T09:57:42.037Z,10.70
2023-03-02T10:00:32.720Z,10.90
2023-03-02T10:03:29.266Z,10.70
2023-03-02T10:06:15.342Z,10.80
2023-03-02T10:09:02.394Z,10.80
2023-03-02T10:11:51.461Z,10.90
2023-03-02T10:14:42.272Z,10.80
2023-03-02T10:17:33.797Z,11.20
2023-03-02T10:20:22.046Z,11.10
2023-03-02T10:23:29.558Z,11.40
2023-03-02T10:26:27.792Z,11.50
2023-03-02T10:29:33.425Z,11.60
2023-03-02T10:32:20.145Z,11.80
2023-03-02T10:35:27.233Z,11.60
2023-03-02T10:38:15.357Z,11.70
2023-03-02T10:41:02.714Z,12.20
2023-03-02T10:43:52.994Z,12.40
2023-03-02T10:46:43.207Z,12.30
2023-03-02T10:49:36.154Z,12.70
2023-03-02T10:52:23.216Z,13.20
2023-03-02T10:55:15.327Z,12.70
2023-03-02T10:58:01.453Z,14.30
2023-03-02T11:01:00.642Z,13.20
2023-03-02T11:03:57.066Z,12.70
2023-03-02T11:06:43.387Z,13.00
2023-03-02T11:09:29.444Z,13.50
2023-03-02T11:12:17.647Z,13.50
2023-03-02T11:15:14.904Z,13.30
2023-03-02T11:18:06.769Z,13.20
2023-03-02T11:20:53.818Z,12.40
2023-03-02T11:23:49.900Z,12.30
2023-03-02T11:26:48.364Z,12.60
2023-03-02T11:29:35.216Z,12.60
2023-03-02T11:32:24.205Z,12.50
2023-03-02T11:35:16.530Z,12.70
2023-03-02T11:38:21.071Z,12.80
2023-03-02T11:41:16.550Z,13.20
2023-03-02T11:44:07.727Z,12.80
2023-03-02T11:46:59.182Z,12.60
2023-03-02T11:49:48.228Z,12.80
2023-03-02T11:52:38.524Z,13.10
2023-03-02T11:55:26.046Z,12.70
2023-03-02T11:58:19.883Z,12.10
2023-03-02T12:01:07.753Z,12.30
2023-03-02T12:03:54.436Z,12.50
2023-03-02T12:06:44.423Z,12.30
2023-03-02T12:09:33.205Z,11.80
2023-03-02T12:12:36.311Z,12.30
2023-03-02T12:15:34.235Z,12.90
2023-03-02T12:18:22.816Z,13.20
2023-03-02T12:21:10.032Z,12.80
2023-03-02T12:23:58.862Z,12.60
2023-03-02T12:26:44.873Z,12.80
2023-03-02T12:29:41.143Z,12.40
2023-03-02T12:32:28.323Z,12.30
2023-03-02T12:35:18.128Z,12.10
2023-03-02T12:38:23.889Z,11.90
2023-03-02T12:41:22.607Z,11.50
2023-03-02T12:44:28.110Z,11.40
2023-03-02T12:47:19.244Z,11.00
2023-03-02T12:50:17.563Z,11.10
2023-03-02T12:53:05.609Z,11.00
2023-03-02T12:55:51.870Z,11.10
2023-03-02T12:58:38.692Z,11.00
2023-03-02T13:01:28.504Z,11.40
2023-03-02T13:04:27.240Z,11.50
2023-03-02T13:07:20.278Z,11.60
2023-03-02T13:10:09.998Z,11.30
2023-03-02T13:12:55.959Z,11.20
2023-03-02T13:15:55.426Z,11.10
2023-03-02T13:18:42.339Z,11.10
2023-03-02T13:21:33.100Z,11.20
2023-03-02T13:24:37.602Z,11.20
2023-03-02T13:27:24.049Z,11.30
2023-03-02T13:30:11.639Z,11.10
2023-03-02T13:33:00.909Z,11.20
2023-03-02T13:35:48.508Z,11.30
2023-03-02T13:38:37.353Z,11.40
2023-03-02T13:41:30.690Z,10.90
2023-03-02T13:44:19.942Z,10.80
2023-03-02T13:47:05.809Z,11.10
2023-03-02T13:49:51.519Z,11.30
2023-03-02T13:52:40.182Z,11.50
2023-03-02T13:55:25.820Z,11.40
2023-03-02T13:58:21.076Z,11.10
2023-03-02T14:01:08.193Z,11.40
2023-03-02T14:03:54.524Z,11.60
2023-03-02T14:06:41.062Z,11.70
2023-03-02T14:09:27.355Z,11.60
2023-03-02T14:12:20.982Z,11.50
2023-03-02T14:15:07.630Z,11.40
2023-03-02T14:17:53.974Z,11.30
2023-03-02T14:20:40.002Z,10.80
2023-03-02T14:23:26.603Z,10.90
2023-03-02T14:26:32.497Z,11.00
2023-03-02T14:29:23.058Z,11.20
2023-03-02T14:32:09.604Z,11.30
2023-03-02T14:34:55.926Z,11.50
2023-03-02T14:37:43.591Z,11.70
2023-03-02T14:40:29.399Z,11.90
2023-03-02T14:43:15.342Z,11.90
2023-03-02T14:46:00.983Z,12.10
2023-03-02T14:48:46.912Z,12.50
2023-03-02T14:54:48.027Z,12.50
2023-03-02T14:57:36.561Z,12.40
2023-03-02T15:00:22.204Z,12.40
2023-03-02T15:03:07.737Z,12.40
2023-03-02T15:06:01.243Z,12.10
2023-03-02T15:08:47.135Z,12.70
2023-03-02T15:11:32.874Z,11.80
2023-03-02T15:14:18.772Z,12.00
2023-03-02T15:17:05.450Z,12.00
2023-03-02T15:19:51.570Z,11.90
2023-03-02T15:22:37.168Z,11.70
2023-03-02T15:25:26.439Z,11.50
2023-03-02T15:28:12.958Z,11.80
2023-03-02T15:31:06.078Z,11.90
2023-03-02T15:33:52.283Z,12.10
2023-03-02T15:36:38.071Z,12.10
2023-03-02T15:39:24.380Z,12.20
2023-03-02T15:42:11.637Z,11.20
2023-03-02T15:44:58.437Z,11.50
2023-03-02T15:47:45.287Z,11.70
2023-03-02T15:50:31.004Z,12.00
2023-03-02T15:53:17.217Z,11.90
2023-03-02T15:56:06.922Z,11.90
2023-03-02T15:58:53.431Z,11.90
2023-03-02T16:01:39.362Z,11.70
2023-03-02T16:04:26.616Z,11.70
2023-03-02T16:07:12.360Z,11.50
2023-03-02T16:09:58.358Z,11.70
2023-03-02T16:12:43.977Z,11.90
2023-03-02T16:15:29.739Z,11.90
2023-03-02T16:18:15.959Z,11.90
2023-03-02T16:21:02.775Z,11.90
2023-03-02T16:23:48.840Z,12.10
2023-03-02T16:26:35.951Z,11.80
2023-03-02T16:29:24.402Z,11.70
2023-03-02T16:32:10.283Z,11.80
2023-03-02T16:34:56.233Z,12.00
2023-03-02T16:37:41.980Z,11.60
2023-03-02T16:40:29.671Z,11.20
2023-03-02T16:43:15.601Z,11.10
2023-03-02T16:46:01.899Z,11.40
2023-03-02T16:48:48.454Z,11.40
2023-03-02T16:51:35.076Z,11.60
2023-03-02T16:54:20.750Z,11.40
2023-03-02T16:57:06.434Z,10.90
2023-03-02T16:59:52.202Z,10.50
2023-03-02T17:02:38.324Z,10.30
2023-03-02T17:05:24.974Z,10.30
2023-03-02T17:08:11.287Z,10.40
2023-03-02T17:10:56.986Z,10.70
2023-03-02T17:13:42.533Z,10.30
2023-03-02T17:16:28.703Z,10.10
2023-03-02T17:19:14.562Z,10.50
2023-03-02T17:22:01.194Z,10.40
2023-03-02T17:24:46.978Z,10.20
2023-03-02T17:27:32.521Z,10.50
2023-03-02T17:30:18.408Z,10.50
2023-03-02T17:33:04.258Z,10.40
2023-03-02T17:35:50.461Z,10.70
2023-03-02T17:38:36.340Z,11.10
2023-03-02T17:41:21.876Z,11.40
2023-03-02T17:44:07.552Z,11.50
2023-03-02T17:46:53.761Z,11.50
2023-03-02T17:49:45.264Z,11.40
2023-03-02T17:52:31.374Z,11.70
2023-03-02T17:55:17.688Z,11.70
2023-03-02T17:58:03.633Z,11.60
2023-03-02T18:00:49.605Z,11.60
2023-03-02T18:03:35.502Z,11.80
2023-03-02T18:06:22.143Z,11.60
2023-03-02T18:09:08.002Z,11.40
2023-03-02T18:11:53.852Z,11.50
2023-03-02T18:14:39.892Z,11.50
2023-03-02T18:17:25.857Z,11.30
2023-03-02T18:20:12.377Z,11.50
2023-03-02T18:22:58.294Z,11.50
2023-03-02T18:25:44.096Z,11.60
2023-03-02T18:28:29.797Z,11.60
2023-03-02T18:31:16.258Z,11.50
2023-03-02T18:34:03.093Z,11.60
2023-03-02T18:36:50.127Z,11.60
2023-03-02T18:39:38.043Z,11.80
2023-03-02T18:42:24.406Z,11.30
2023-03-02T18:45:10.569Z,12.10
2023-03-02T18:47:58.476Z,11.50
2023-03-02T18:50:44.636Z,11.60
2023-03-02T18:53:33.380Z,11.50
2023-03-02T18:56:20.588Z,11.50
2023-03-02T18:59:07.651Z,11.50
2023-03-02T19:01:54.084Z,11.30
2023-03-02T19:04:40.668Z,11.40
2023-03-02T19:07:26.800Z,11.40
2023-03-02T19:10:13.552Z,11.30
2023-03-02T19:13:00.242Z,11.30
2023-03-02T19:15:46.971Z,11.10
2023-03-02T19:18:33.467Z,11.10
2023-03-02T19:21:19.074Z,11.00
2023-03-02T19:24:05.305Z,10.90
2023-03-02T19:26:51.415Z,10.80
2023-03-02T19:29:36.785Z,10.90
2023-03-02T19:32:23.124Z,10.90
2023-03-02T19:35:10.691Z,10.90
2023-03-02T19:37:56.218Z,10.90
2023-03-02T19:40:42.734Z,10.90
2023-03-02T19:43:28.466Z,10.90
2023-03-02T19:46:15.240Z,10.90
2023-03-02T19:49:01.330Z,10.90
2023-03-02T19:51:47.086Z,10.90
2023-03-02T19:54:35.524Z,10.90
2023-03-02T19:57:21.917Z,10.70
2023-03-02T20:00:09.968Z,10.70
2023-03-02T20:02:56.589Z,10.50
2023-03-02T20:05:42.672Z,10.50
2023-03-02T20:08:28.823Z,10.50
2023-03-02T20:11:14.811Z,10.40
2023-03-02T20:14:03.631Z,10.40
2023-03-02T20:16:50.086Z,10.40
2023-03-02T20:19:36.153Z,10.40
2023-03-02T20:22:24.397Z,10.30
2023-03-02T20:25:10.232Z,10.30
2023-03-02T20:27:56.637Z,10.30
2023-03-02T20:30:44.244Z,10.30
2023-03-02T20:33:33.432Z,10.30
2023-03-02T20:36:24.315Z,11.50
2023-03-02T20:39:12.363Z,10.20
2023-03-02T20:41:58.848Z,10.20
2023-03-02T20:44:45.817Z,10.00
2023-03-02T20:47:32.239Z,10.20
2023-03-02T20:50:19.905Z,10.10
2023-03-02T20:53:06.779Z,10.10
2023-03-02T20:55:52.505Z,10.30
2023-03-02T20:58:41.385Z,10.30
2023-03-02T21:01:29.710Z,10.20
2023-03-02T21:04:16.176Z,10.10
2023-03-02T21:07:02.515Z,10.00
2023-03-02T21:09:48.411Z,9.90
2023-03-02T21:12:34.748Z,9.90
2023-03-02T21:15:23.918Z,9.90
2023-03-02T21:18:10.509Z,9.90
2023-03-02T21:20:56.804Z,10.00
2023-03-02T21:23:42.683Z,10.10
2023-03-02T21:26:30.768Z,10.10
2023-03-02T21:29:16.884Z,10.00
2023-03-02T21:32:03.664Z,9.90
2023-03-02T21:34:49.496Z,9.90
2023-03-02T21:37:34.886Z,9.90
2023-03-02T21:40:25.469Z,9.90
2023-03-02T21:43:11.726Z,9.90
2023-03-02T21:45:57.229Z,10.80
2023-03-02T21:48:43.310Z,9.80
2023-03-02T21:51:28.860Z,9.80
2023-03-02T21:54:15.309Z,9.70
2023-03-02T21:57:01.146Z,9.80
2023-03-02T21:59:46.576Z,10.00
2023-03-02T22:02:33.006Z,9.90
2023-03-02T22:05:19.129Z,9.80
2023-03-02T22:08:05.274Z,9.90
2023-03-02T22:10:51.867Z,9.90
2023-03-02T22:13:38.012Z,9.80
2023-03-02T22:16:24.814Z,9.80
2023-03-02T22:19:37.129Z,9.80
2023-03-02T22:22:27.441Z,9.80
2023-03-02T22:25:17.300Z,9.80
2023-03-02T22:28:06.319Z,9.80
2023-03-02T22:30:52.754Z,9.70
2023-03-02T22:33:38.447Z,9.70
2023-03-02T22:36:24.731Z,9.50
2023-03-02T22:39:13.779Z,9.70
2023-03-02T22:42:06.245Z,9.80
2023-03-02T22:44:55.612Z,9.80
2023-03-02T22:47:41.769Z,9.80
2023-03-02T22:50:28.978Z,9.70
2023-03-02T22:53:25.859Z,9.70
2023-03-02T22:56:24.471Z,9.70
2023-03-02T22:59:25.534Z,9.70
2023-03-02T23:02:17.813Z,9.70
2023-03-02T23:05:18.914Z,9.80
2023-03-02T23:08:17.301Z,9.80
2023-03-02T23:11:03.131Z,9.80
2023-03-02T23:13:50.261Z,9.70
2023-03-02T23:16:36.209Z,9.70
2023-03-02T23:19:21.765Z,9.60
2023-03-02T23:22:07.618Z,9.50
2023-03-02T23:24:53.427Z,9.60
2023-03-02T23:27:39.363Z,9.60
2023-03-02T23:30:25.203Z,9.60
2023-03-02T23:33:10.635Z,9.70
2023-03-02T23:35:56.656Z,9.60
2023-03-02T23:38:42.647Z,9.50
2023-03-02T23:41:28.383Z,9.50
2023-03-02T23:44:14.034Z,9.50
2023-03-02T23:46:59.812Z,9.30
2023-03-02T23:49:45.390Z,9.30
2023-03-02T23:52:31.034Z,9.40
2023-03-02T23:55:16.638Z,9.50
2023-03-02T23:58:02.340Z,9.50
